Time;durP1;ratioP1;P1;durP2;ratioP2;P2;SDS_P1;SDS_P2;PMS_P1;PMS_P2;Temp;Humidity;BMP_temperature;BMP_pressure;BME280_temperature;BME280_humidity;BME280_pressure;Samples;Min_cycle;Max_cycle;Signal;HPM_P1;HPM_P2
2021/06/16 00:01:03;;;;;;;6.43;2.47;;;17.80;84.10;;;;;;5044250;28;20029;-66
2021/06/16 00:03:29;;;;;;;8.43;2.95;;;17.80;84.30;;;;;;5045202;28;20533;-66
2021/06/16 00:05:54;;;;;;;6.38;2.42;;;17.80;84.70;;;;;;5040357;28;20442;-65
2021/06/16 00:08:20;;;;;;;6.00;2.30;;;17.70;84.90;;;;;;5043269;28;20021;-66
2021/06/16 00:10:46;;;;;;;9.10;2.70;;;17.70;85.20;;;;;;5029603;28;20101;-66
2021/06/16 00:13:12;;;;;;;5.55;2.83;;;17.70;85.50;;;;;;5039185;28;20390;-66
2021/06/16 00:15:41;;;;;;;7.88;3.13;;;17.70;85.70;;;;;;5048206;28;20382;-66
2021/06/16 00:18:07;;;;;;;8.27;2.95;;;17.70;85.80;;;;;;5039876;28;20052;-67
2021/06/16 00:20:34;;;;;;;9.90;2.90;;;17.70;85.90;;;;;;5047218;28;20056;-66
2021/06/16 00:23:00;;;;;;;11.95;2.42;;;17.80;86.10;;;;;;5048326;28;20025;-66
2021/06/16 00:25:26;;;;;;;10.18;2.83;;;17.70;86.20;;;;;;5048095;28;20025;-66
2021/06/16 00:27:53;;;;;;;9.63;3.70;;;17.80;86.50;;;;;;5041233;28;20122;-66
2021/06/16 00:30:19;;;;;;;9.80;3.33;;;17.70;87.10;;;;;;5045086;28;20478;-66
2021/06/16 00:32:45;;;;;;;10.88;3.38;;;17.70;86.80;;;;;;5051193;28;20066;-66
2021/06/16 00:35:12;;;;;;;8.77;3.08;;;17.70;87.00;;;;;;5047965;28;20022;-66
2021/06/16 00:37:38;;;;;;;10.20;3.50;;;17.70;87.20;;;;;;5050130;28;20502;-66
2021/06/16 00:40:05;;;;;;;7.35;3.00;;;17.70;87.60;;;;;;5048497;28;20410;-66
2021/06/16 00:42:31;;;;;;;9.88;3.20;;;17.60;88.00;;;;;;5036324;28;20025;-66
2021/06/16 00:44:56;;;;;;;6.57;3.50;;;17.50;88.40;;;;;;5043231;28;20029;-66
2021/06/16 00:47:22;;;;;;;10.40;3.50;;;17.50;88.60;;;;;;5048555;28;20384;-66
2021/06/16 00:49:47;;;;;;;10.30;3.83;;;17.50;88.80;;;;;;5042842;28;20442;-66
2021/06/16 00:52:13;;;;;;;9.75;3.55;;;17.50;89.00;;;;;;5042556;28;20025;-66
2021/06/16 00:54:39;;;;;;;8.23;3.60;;;17.50;89.10;;;;;;5050345;28;20013;-66
2021/06/16 00:57:05;;;;;;;10.65;3.33;;;17.40;89.30;;;;;;5049130;28;20014;-66
2021/06/16 00:59:45;;;;;;;8.15;3.45;;;17.40;89.60;;;;;;5033915;28;20021;-66
2021/06/16 01:02:12;;;;;;;7.18;3.35;;;17.40;89.80;;;;;;5038231;28;20024;-66
2021/06/16 01:04:38;;;;;;;10.63;4.00;;;17.40;90.10;;;;;;5051973;28;20488;-66
2021/06/16 01:07:09;;;;;;;12.63;4.28;;;17.40;90.20;;;;;;5046906;28;20032;-66
2021/06/16 01:09:42;;;;;;;7.55;3.92;;;17.40;90.40;;;;;;5036117;28;20386;-66
2021/06/16 01:12:30;;;;;;;10.90;4.32;;;17.30;90.60;;;;;;5031548;28;20083;-66
2021/06/16 01:15:01;;;;;;;11.45;3.88;;;17.30;90.80;;;;;;5035355;28;20052;-66
2021/06/16 01:17:36;;;;;;;10.82;4.05;;;17.20;91.10;;;;;;5051906;28;20435;-66
2021/06/16 01:20:24;;;;;;;8.38;4.10;;;17.20;91.40;;;;;;5040984;28;20075;-66
2021/06/16 01:23:08;;;;;;;9.23;3.97;;;17.20;91.60;;;;;;5050156;28;20028;-66
2021/06/16 01:25:39;;;;;;;10.25;3.90;;;17.10;91.80;;;;;;5046632;28;20029;-66
2021/06/16 01:28:05;;;;;;;13.75;4.32;;;17.10;92.10;;;;;;5023387;28;20025;-67
2021/06/16 01:30:32;;;;;;;9.05;4.47;;;17.00;92.20;;;;;;5045818;28;20474;-66
2021/06/16 01:32:59;;;;;;;10.75;4.15;;;17.10;92.40;;;;;;5048811;28;20029;-66
2021/06/16 01:35:29;;;;;;;13.27;5.50;;;17.00;92.50;;;;;;5047019;28;20044;-66
2021/06/16 01:37:57;;;;;;;14.35;4.82;;;17.00;92.50;;;;;;5048038;28;20116;-66
2021/06/16 01:40:25;;;;;;;6.80;4.20;;;16.90;92.70;;;;;;5044105;28;20018;-66
2021/06/16 01:42:53;;;;;;;13.05;5.22;;;16.90;92.90;;;;;;5041817;28;20025;-66
2021/06/16 01:45:20;;;;;;;10.70;4.50;;;16.90;93.00;;;;;;5050883;28;20390;-66
2021/06/16 01:47:47;;;;;;;19.02;5.68;;;16.80;93.10;;;;;;5041119;28;20021;-66
2021/06/16 01:50:17;;;;;;;17.55;5.28;;;16.80;93.30;;;;;;5032521;28;20021;-67
2021/06/16 01:52:46;;;;;;;12.82;5.68;;;16.80;93.40;;;;;;5038921;28;20386;-66
2021/06/16 01:55:13;;;;;;;12.13;5.37;;;16.70;93.60;;;;;;5049306;28;20021;-66
2021/06/16 01:57:39;;;;;;;10.77;4.78;;;16.70;93.70;;;;;;5039618;28;20020;-66
2021/06/16 02:00:06;;;;;;;11.32;5.43;;;16.70;93.80;;;;;;5043271;28;20025;-66
2021/06/16 02:02:32;;;;;;;13.43;4.90;;;16.70;93.90;;;;;;5042152;28;20017;-66
2021/06/16 02:04:58;;;;;;;13.20;4.68;;;16.70;94.10;;;;;;5041131;28;20037;-66
2021/06/16 02:07:30;;;;;;;16.25;5.97;;;16.70;94.20;;;;;;5045852;28;20024;-66
2021/06/16 02:09:57;;;;;;;15.40;6.25;;;16.80;94.30;;;;;;5045144;28;20040;-66
2021/06/16 02:12:23;;;;;;;10.55;5.03;;;16.80;94.30;;;;;;5037055;28;20387;-66
2021/06/16 02:14:56;;;;;;;11.23;5.15;;;16.80;94.40;;;;;;5041334;28;20021;-66
2021/06/16 02:17:25;;;;;;;8.70;5.30;;;16.70;94.40;;;;;;5050934;28;20021;-66
2021/06/16 02:19:53;;;;;;;13.15;5.35;;;16.70;94.40;;;;;;5044403;28;20028;-66
2021/06/16 02:22:19;;;;;;;9.57;4.97;;;16.70;94.50;;;;;;5043553;28;20029;-66
2021/06/16 02:24:45;;;;;;;13.00;4.93;;;16.60;94.60;;;;;;5032823;28;20043;-67
2021/06/16 02:27:12;;;;;;;10.13;5.68;;;16.60;94.70;;;;;;5049613;28;20032;-67
2021/06/16 02:29:38;;;;;;;12.98;5.30;;;16.60;94.80;;;;;;5050207;28;20025;-66
2021/06/16 02:32:04;;;;;;;12.23;5.38;;;16.50;94.90;;;;;;5045608;28;20104;-66
2021/06/16 02:34:30;;;;;;;17.08;6.63;;;16.50;95.10;;;;;;5050556;28;20025;-66
2021/06/16 02:36:59;;;;;;;15.85;5.70;;;16.40;95.30;;;;;;5032598;28;20075;-66
2021/06/16 02:39:48;;;;;;;12.32;5.45;;;16.40;95.40;;;;;;5050533;28;20100;-66
2021/06/16 02:42:15;;;;;;;12.57;6.10;;;16.30;95.50;;;;;;5039865;28;20030;-66
2021/06/16 02:44:43;;;;;;;12.15;5.30;;;16.30;95.70;;;;;;5041027;28;20108;-66
2021/06/16 02:47:10;;;;;;;12.63;5.85;;;16.20;95.80;;;;;;5040021;28;20048;-66
2021/06/16 02:49:43;;;;;;;10.85;5.25;;;16.20;95.90;;;;;;5048929;28;20056;-66
2021/06/16 02:52:11;;;;;;;16.20;6.00;;;16.20;96.00;;;;;;5029983;28;20481;-66
2021/06/16 02:54:38;;;;;;;14.30;5.65;;;16.20;96.00;;;;;;5042335;28;20517;-66
2021/06/16 02:57:05;;;;;;;10.93;5.40;;;16.20;96.00;;;;;;5041984;28;20113;-67
2021/06/16 02:59:32;;;;;;;19.45;7.05;;;16.20;96.10;;;;;;5047230;28;20029;-66
2021/06/16 03:01:58;;;;;;;14.05;5.88;;;16.20;96.20;;;;;;5049644;28;20032;-66
2021/06/16 03:04:25;;;;;;;9.93;5.15;;;16.10;96.20;;;;;;5044522;28;20358;-66
2021/06/16 03:06:53;;;;;;;13.38;5.88;;;16.10;96.20;;;;;;5035623;28;20379;-66
2021/06/16 03:09:20;;;;;;;10.43;5.65;;;16.20;96.30;;;;;;5044119;28;20017;-66
2021/06/16 03:11:46;;;;;;;13.60;5.32;;;16.10;96.30;;;;;;5049261;28;20386;-66
2021/06/16 03:14:13;;;;;;;13.02;6.13;;;16.10;96.40;;;;;;5047174;28;20017;-67
2021/06/16 03:16:40;;;;;;;13.00;6.40;;;16.20;96.40;;;;;;5032792;28;20025;-67
2021/06/16 03:19:07;;;;;;;13.88;6.05;;;16.20;96.50;;;;;;5042143;28;20364;-67
2021/06/16 03:21:35;;;;;;;16.83;6.30;;;16.10;96.50;;;;;;5033668;28;20033;-67
2021/06/16 03:24:01;;;;;;;15.00;6.22;;;16.10;96.60;;;;;;5044612;28;20017;-67
2021/06/16 03:26:28;;;;;;;12.68;5.53;;;16.10;96.60;;;;;;5045655;28;20033;-67
2021/06/16 03:28:55;;;;;;;14.48;6.22;;;16.10;96.60;;;;;;5048185;28;20394;-67
2021/06/16 03:31:21;;;;;;;14.68;6.25;;;16.00;96.60;;;;;;5046177;28;20032;-67
2021/06/16 03:33:48;;;;;;;9.57;6.43;;;16.00;96.70;;;;;;5048325;28;20025;-67
2021/06/16 03:36:15;;;;;;;13.68;6.32;;;16.00;96.70;;;;;;5045397;28;20760;-67
2021/06/16 03:38:42;;;;;;;18.50;6.47;;;16.00;96.80;;;;;;5046349;28;20461;-67
2021/06/16 03:41:09;;;;;;;12.90;5.85;;;16.00;96.80;;;;;;5044368;28;20112;-67
2021/06/16 03:43:36;;;;;;;12.85;6.68;;;16.10;96.80;;;;;;5047102;28;20024;-67
2021/06/16 03:46:06;;;;;;;11.32;6.07;;;16.10;97.00;;;;;;5032875;28;20502;-67
2021/06/16 03:48:33;;;;;;;14.00;6.38;;;16.20;96.70;;;;;;5044473;28;20040;-67
2021/06/16 03:50:59;;;;;;;10.13;5.43;;;16.20;96.70;;;;;;5048062;28;20029;-67
2021/06/16 03:53:26;;;;;;;10.45;5.82;;;16.30;96.70;;;;;;5045470;28;20482;-67
2021/06/16 03:55:54;;;;;;;12.35;5.72;;;16.30;96.60;;;;;;5048498;28;20036;-67
2021/06/16 03:58:19;;;;;;;12.18;5.25;;;16.40;96.50;;;;;;5039546;28;20045;-67
2021/06/16 04:00:46;;;;;;;9.35;5.28;;;16.50;96.30;;;;;;5036159;28;20069;-67
2021/06/16 04:03:13;;;;;;;13.30;5.35;;;16.60;96.20;;;;;;5032334;28;20083;-67
2021/06/16 04:05:39;;;;;;;13.82;6.18;;;16.70;96.00;;;;;;5049442;28;20017;-67
2021/06/16 04:08:07;;;;;;;10.95;4.50;;;16.80;96.20;;;;;;5045262;28;20100;-67
2021/06/16 04:10:34;;;;;;;13.07;5.60;;;16.90;95.80;;;;;;5053069;28;20013;-67
2021/06/16 04:13:01;;;;;;;12.65;4.97;;;17.10;95.50;;;;;;5049989;28;20032;-67
2021/06/16 04:15:27;;;;;;;9.98;4.68;;;17.20;95.30;;;;;;5045438;28;20021;-67
2021/06/16 04:17:54;;;;;;;12.18;4.75;;;17.40;94.90;;;;;;5035146;28;20429;-67
2021/06/16 04:20:19;;;;;;;15.85;4.88;;;17.60;94.50;;;;;;5046962;28;20372;-67
2021/06/16 04:22:45;;;;;;;11.13;5.22;;;17.80;94.10;;;;;;5040291;28;20021;-67
2021/06/16 04:25:11;;;;;;;13.40;5.18;;;17.90;93.60;;;;;;5045930;28;20618;-67
2021/06/16 04:27:37;;;;;;;9.73;4.53;;;17.90;93.40;;;;;;5044124;28;20668;-67
2021/06/16 04:30:10;;;;;;;12.52;4.72;;;17.90;93.30;;;;;;5042964;28;20148;-67
2021/06/16 04:32:37;;;;;;;12.30;5.60;;;17.90;93.10;;;;;;5044248;28;20080;-67
2021/06/16 04:35:04;;;;;;;12.23;5.40;;;17.90;93.10;;;;;;5035674;28;20071;-67
2021/06/16 04:37:29;;;;;;;11.32;5.50;;;17.90;93.00;;;;;;5049538;28;20444;-67
2021/06/16 04:39:55;;;;;;;19.65;5.75;;;17.90;93.00;;;;;;5049502;28;20017;-66
2021/06/16 04:42:20;;;;;;;13.65;5.28;;;17.90;92.80;;;;;;5040737;28;20014;-66
2021/06/16 04:44:46;;;;;;;20.10;5.43;;;17.90;92.70;;;;;;5042321;28;20116;-66
2021/06/16 04:47:11;;;;;;;19.15;5.07;;;17.90;92.70;;;;;;5047704;28;20373;-66
2021/06/16 04:49:37;;;;;;;13.50;5.55;;;18.00;92.60;;;;;;5032101;28;20037;-66
2021/06/16 04:52:03;;;;;;;15.05;4.95;;;18.10;92.20;;;;;;5042119;28;20470;-66
2021/06/16 04:54:28;;;;;;;13.55;5.07;;;18.30;92.00;;;;;;5049462;28;20021;-66
2021/06/16 04:56:56;;;;;;;12.82;4.80;;;18.50;91.70;;;;;;5050127;28;20029;-67
2021/06/16 04:59:21;;;;;;;15.75;5.22;;;18.60;91.20;;;;;;5038385;28;20137;-67
2021/06/16 05:01:48;;;;;;;16.83;5.13;;;18.80;90.90;;;;;;5042525;28;20465;-66
2021/06/16 05:04:13;;;;;;;17.33;4.82;;;19.00;90.40;;;;;;5037432;28;20105;-66
2021/06/16 05:06:39;;;;;;;14.07;4.65;;;18.90;90.30;;;;;;5046898;28;20100;-66
2021/06/16 05:09:04;;;;;;;14.95;5.25;;;18.90;90.40;;;;;;5048174;28;20059;-67
2021/06/16 05:11:30;;;;;;;10.20;5.43;;;18.90;90.40;;;;;;5051374;28;20044;-66
2021/06/16 05:13:56;;;;;;;12.52;5.28;;;19.00;90.40;;;;;;5048163;28;20489;-67
2021/06/16 05:16:21;;;;;;;12.13;4.88;;;18.90;90.40;;;;;;5050821;28;20021;-66
2021/06/16 05:18:48;;;;;;;12.95;4.55;;;19.00;90.50;;;;;;5042588;28;20028;-67
2021/06/16 05:21:13;;;;;;;9.05;4.82;;;19.10;90.60;;;;;;5049900;28;20048;-67
2021/06/16 05:23:39;;;;;;;13.48;4.93;;;19.10;90.40;;;;;;5043384;28;20438;-67
2021/06/16 05:26:05;;;;;;;14.73;4.57;;;19.20;90.30;;;;;;5042969;28;20025;-67
2021/06/16 05:28:31;;;;;;;12.10;4.75;;;19.40;89.70;;;;;;5035690;28;20052;-67
2021/06/16 05:30:57;;;;;;;13.50;5.43;;;19.60;89.00;;;;;;5042708;28;20360;-66
2021/06/16 05:33:22;;;;;;;15.75;4.43;;;19.90;88.00;;;;;;5040855;28;20100;-66
2021/06/16 05:35:48;;;;;;;17.23;5.18;;;20.10;86.70;;;;;;5039694;28;20096;-66
2021/06/16 05:38:13;;;;;;;20.42;4.20;;;20.50;86.20;;;;;;5043549;28;20383;-66
2021/06/16 05:40:39;;;;;;;18.55;4.93;;;20.80;86.00;;;;;;5042470;28;20018;-66
2021/06/16 05:43:05;;;;;;;16.60;4.25;;;21.10;84.60;;;;;;5043288;28;20021;-66
2021/06/16 05:45:30;;;;;;;14.05;4.25;;;21.40;84.00;;;;;;5042366;28;20128;-65
2021/06/16 05:47:56;;;;;;;9.75;3.60;;;21.80;83.10;;;;;;5036329;28;20032;-66
2021/06/16 05:50:23;;;;;;;11.77;3.67;;;22.10;82.20;;;;;;5038721;28;20114;-65
2021/06/16 05:52:48;;;;;;;12.75;3.78;;;22.40;80.90;;;;;;5025345;28;20030;-65
2021/06/16 05:55:14;;;;;;;18.40;4.38;;;22.80;79.70;;;;;;5020721;28;20450;-65
2021/06/16 05:57:40;;;;;;;17.75;4.30;;;23.10;78.30;;;;;;5032683;28;20030;-65
2021/06/16 06:00:08;;;;;;;10.98;3.63;;;23.30;78.10;;;;;;5017545;28;20022;-65
2021/06/16 06:02:33;;;;;;;7.20;3.65;;;23.70;77.20;;;;;;5016101;28;20060;-65
2021/06/16 06:04:59;;;;;;;13.75;3.97;;;24.10;76.20;;;;;;5025703;28;20021;-65
2021/06/16 06:07:25;;;;;;;18.13;4.13;;;24.60;75.20;;;;;;5037786;28;20086;-66
2021/06/16 06:09:50;;;;;;;9.70;3.88;;;24.90;73.60;;;;;;5028373;28;20057;-65
2021/06/16 06:12:16;;;;;;;9.48;3.42;;;25.20;72.80;;;;;;5021953;28;20598;-65
2021/06/16 06:14:42;;;;;;;15.43;4.10;;;25.50;72.40;;;;;;5029621;28;20026;-65
2021/06/16 06:17:08;;;;;;;11.35;3.60;;;26.00;70.70;;;;;;5036190;28;20516;-66
2021/06/16 06:19:34;;;;;;;16.33;3.45;;;26.40;68.60;;;;;;5033548;28;20416;-65
2021/06/16 06:21:59;;;;;;;18.55;4.28;;;26.70;67.30;;;;;;5034675;28;20032;-65
2021/06/16 06:24:25;;;;;;;9.90;3.30;;;26.90;65.80;;;;;;5022991;28;20428;-65
2021/06/16 06:26:50;;;;;;;12.80;3.45;;;27.10;65.70;;;;;;5029283;28;20026;-65
2021/06/16 06:29:16;;;;;;;12.00;3.60;;;27.50;65.90;;;;;;5023869;28;20059;-65
2021/06/16 06:31:41;;;;;;;10.07;3.15;;;27.90;64.10;;;;;;5036235;28;20026;-65
2021/06/16 06:34:07;;;;;;;10.90;3.85;;;28.20;61.10;;;;;;5031695;28;20017;-64
2021/06/16 06:36:33;;;;;;;13.90;4.07;;;28.30;61.40;;;;;;5021564;28;20017;-65
2021/06/16 06:38:58;;;;;;;10.38;3.38;;;28.50;61.80;;;;;;5024299;28;20044;-65
2021/06/16 06:41:24;;;;;;;13.07;3.40;;;28.80;60.90;;;;;;5020790;28;20049;-65
2021/06/16 06:43:49;;;;;;;11.98;3.60;;;28.90;60.00;;;;;;5024767;28;20026;-65
2021/06/16 06:46:15;;;;;;;17.92;3.90;;;29.10;59.20;;;;;;5020814;28;20025;-65
2021/06/16 06:48:41;;;;;;;13.25;3.47;;;29.50;57.90;;;;;;5023300;28;20483;-65
2021/06/16 06:51:06;;;;;;;7.65;3.00;;;29.70;57.20;;;;;;5021314;28;20021;-65
2021/06/16 06:53:32;;;;;;;10.38;2.95;;;29.90;56.50;;;;;;5022097;28;20037;-65
2021/06/16 06:55:59;;;;;;;13.30;2.97;;;30.30;56.60;;;;;;5028285;28;20053;-66
2021/06/16 06:58:25;;;;;;;4.90;2.22;;;30.70;54.50;;;;;;5019889;28;20088;-66
2021/06/16 07:00:51;;;;;;;8.00;2.50;;;30.80;54.10;;;;;;5030048;28;20033;-66
2021/06/16 07:03:16;;;;;;;13.43;3.13;;;30.90;54.20;;;;;;5025191;28;20022;-66
2021/06/16 07:05:44;;;;;;;8.35;2.63;;;31.00;52.80;;;;;;5021080;28;20022;-66
2021/06/16 07:08:10;;;;;;;16.63;3.15;;;31.00;54.30;;;;;;5026717;28;20021;-66
2021/06/16 07:10:36;;;;;;;18.92;3.97;;;31.20;54.20;;;;;;5028884;28;20026;-66
2021/06/16 07:13:03;;;;;;;12.05;3.00;;;31.50;53.30;;;;;;5024109;28;20021;-66
2021/06/16 07:15:30;;;;;;;11.95;2.70;;;31.90;52.10;;;;;;5020525;28;20049;-66
2021/06/16 07:17:55;;;;;;;6.45;2.22;;;32.20;50.30;;;;;;5023363;28;20539;-66
2021/06/16 07:20:21;;;;;;;6.95;2.60;;;32.20;50.30;;;;;;5033060;28;20164;-66
2021/06/16 07:22:47;;;;;;;7.20;2.38;;;32.20;49.80;;;;;;5041990;28;20018;-65
2021/06/16 07:25:14;;;;;;;11.82;3.10;;;32.10;50.10;;;;;;5036775;28;20075;-66
2021/06/16 07:27:39;;;;;;;13.75;3.35;;;32.10;49.50;;;;;;5038521;28;20037;-66
2021/06/16 07:30:06;;;;;;;16.50;3.30;;;32.20;49.70;;;;;;5039398;28;20017;-63
2021/06/16 07:32:32;;;;;;;10.27;2.38;;;32.30;49.90;;;;;;5040811;28;20120;-64
2021/06/16 07:34:59;;;;;;;12.18;2.80;;;32.40;50.50;;;;;;5044024;28;20109;-64
2021/06/16 07:37:25;;;;;;;10.32;2.03;;;32.60;48.60;;;;;;5046353;28;20021;-64
2021/06/16 07:39:50;;;;;;;14.10;2.35;;;32.60;48.10;;;;;;5051250;28;20025;-64
2021/06/16 07:42:16;;;;;;;9.02;2.80;;;32.40;48.10;;;;;;5041709;28;20025;-64
2021/06/16 07:44:41;;;;;;;11.80;2.55;;;32.00;48.00;;;;;;5033232;28;20478;-65
2021/06/16 07:47:07;;;;;;;5.85;2.63;;;32.00;48.20;;;;;;5040226;28;20082;-65
2021/06/16 07:49:33;;;;;;;9.00;2.10;;;32.10;48.60;;;;;;5043790;28;20029;-64
2021/06/16 07:51:58;;;;;;;5.40;1.90;;;32.20;48.80;;;;;;5047223;28;20028;-64
2021/06/16 07:54:24;;;;;;;12.27;2.72;;;32.40;48.50;;;;;;5041019;28;20044;-64
2021/06/16 07:56:49;;;;;;;9.18;2.45;;;32.70;47.90;;;;;;5036309;28;20025;-64
2021/06/16 07:59:15;;;;;;;7.15;2.45;;;32.80;47.10;;;;;;5042354;28;20020;-64
2021/06/16 08:01:43;;;;;;;7.20;1.88;;;32.80;46.60;;;;;;5041903;28;20177;-64
2021/06/16 08:04:08;;;;;;;7.40;1.92;;;32.70;46.50;;;;;;5046218;28;20068;-64
2021/06/16 08:06:34;;;;;;;9.32;2.25;;;32.60;46.80;;;;;;5048018;28;20097;-64
2021/06/16 08:08:59;;;;;;;7.90;2.40;;;32.50;46.60;;;;;;5050158;28;20083;-64
2021/06/16 08:11:25;;;;;;;8.32;2.47;;;32.30;47.40;;;;;;5052420;28;20035;-64
2021/06/16 08:13:51;;;;;;;8.13;1.75;;;32.40;47.30;;;;;;5049438;28;20021;-64
2021/06/16 08:16:18;;;;;;;5.18;2.20;;;32.30;48.30;;;;;;5046592;28;20034;-65
2021/06/16 08:18:45;;;;;;;7.35;2.33;;;32.50;48.00;;;;;;5040744;28;20027;-65
2021/06/16 08:21:10;;;;;;;4.82;1.75;;;32.80;47.70;;;;;;5050725;28;20021;-65
2021/06/16 08:23:36;;;;;;;9.07;1.98;;;33.20;47.30;;;;;;5046692;28;20033;-64
2021/06/16 08:26:02;;;;;;;7.43;1.80;;;33.50;47.40;;;;;;5036066;28;20026;-64
2021/06/16 08:28:28;;;;;;;9.90;2.05;;;33.90;46.50;;;;;;5051971;28;20515;-64
2021/06/16 08:30:54;;;;;;;7.68;2.38;;;34.10;46.00;;;;;;5049379;28;20021;-64
2021/06/16 08:33:20;;;;;;;7.75;2.00;;;34.00;44.30;;;;;;5041547;28;20472;-64
2021/06/16 08:35:45;;;;;;;6.47;1.75;;;33.60;45.40;;;;;;5040204;28;20045;-64
2021/06/16 08:38:11;;;;;;;6.97;2.60;;;33.30;46.10;;;;;;5043649;28;20058;-64
2021/06/16 08:40:37;;;;;;;5.53;1.83;;;33.20;46.00;;;;;;5040504;28;20655;-64
2021/06/16 08:43:02;;;;;;;8.80;2.03;;;33.30;46.70;;;;;;5034794;28;20032;-64
2021/06/16 08:45:37;;;;;;;8.48;2.55;;;33.60;45.90;;;;;;5042333;28;20398;-64
2021/06/16 08:48:03;;;;;;;6.70;2.33;;;33.60;45.90;;;;;;5038442;28;20029;-64
2021/06/16 08:50:29;;;;;;;8.02;2.42;;;33.40;45.20;;;;;;5039374;28;20382;-64
2021/06/16 08:52:55;;;;;;;6.93;2.20;;;33.10;46.10;;;;;;5050069;28;20021;-64
2021/06/16 08:55:21;;;;;;;7.30;2.55;;;33.10;46.30;;;;;;5042350;28;20033;-64
2021/06/16 08:57:47;;;;;;;7.85;2.20;;;33.20;46.20;;;;;;5047271;28;20553;-64
2021/06/16 09:00:14;;;;;;;6.05;2.42;;;33.30;46.30;;;;;;5043782;28;20017;-64
2021/06/16 09:02:40;;;;;;;5.95;2.97;;;33.30;45.90;;;;;;5042328;28;20386;-64
2021/06/16 09:05:06;;;;;;;8.63;2.80;;;33.00;46.10;;;;;;5052075;28;20017;-64
2021/06/16 09:07:33;;;;;;;6.13;2.72;;;32.80;46.70;;;;;;5046731;28;20045;-65
2021/06/16 09:10:12;;;;;;;8.48;3.13;;;32.70;47.00;;;;;;5027257;28;20032;-65
2021/06/16 09:12:59;;;;;;;6.93;3.03;;;32.70;47.10;;;;;;5033691;28;20033;-65
2021/06/16 09:15:28;;;;;;;8.85;3.58;;;32.80;46.80;;;;;;5034720;28;20013;-65
2021/06/16 09:18:02;;;;;;;6.93;2.83;;;32.90;47.40;;;;;;5038093;28;20026;-65
2021/06/16 09:20:30;;;;;;;7.65;2.17;;;33.00;46.90;;;;;;5037576;28;20051;-65
2021/06/16 09:23:19;;;;;;;8.07;3.30;;;33.00;47.60;;;;;;5030829;28;20477;-65
2021/06/16 09:26:02;;;;;;;;;;;33.20;46.30;;;;;;5037187;28;20121;-65
2021/06/16 09:28:50;;;;;;;6.97;3.35;;;32.90;46.40;;;;;;5035225;28;19909;-65
2021/06/16 09:31:18;;;;;;;3.58;2.35;;;32.80;46.50;;;;;;5033376;28;20080;-65
2021/06/16 09:33:44;;;;;;;4.60;2.73;;;32.70;47.60;;;;;;5035403;28;20021;-65
2021/06/16 09:36:13;;;;;;;4.18;2.35;;;32.70;47.20;;;;;;5033423;28;20684;-65
2021/06/16 09:38:39;;;;;;;;;;;32.80;47.80;;;;;;5040157;28;20017;-64
2021/06/16 09:41:10;;;;;;;5.97;2.90;;;33.00;47.80;;;;;;5051310;28;19905;-64
2021/06/16 09:43:36;;;;;;;4.72;2.30;;;33.00;47.50;;;;;;5042565;28;20665;-65
2021/06/16 09:46:05;;;;;;;6.22;2.85;;;33.20;47.50;;;;;;5031507;28;20039;-65
2021/06/16 09:48:35;;;;;;;5.88;2.40;;;33.40;47.10;;;;;;5035074;28;20026;-64
2021/06/16 09:51:25;;;;;;;5.55;2.28;;;33.50;46.60;;;;;;5040444;28;20017;-63
2021/06/16 09:54:27;;;;;;;6.20;2.40;;;33.60;47.20;;;;;;5044083;28;20107;-64
2021/06/16 09:56:58;;;;;;;4.50;2.20;;;33.70;46.60;;;;;;5038075;28;20041;-64
2021/06/16 09:59:37;;;;;;;7.18;2.85;;;33.70;46.10;;;;;;5040278;28;20397;-64
2021/06/16 10:02:03;;;;;;;5.40;2.65;;;33.70;47.30;;;;;;5027363;28;20029;-64
2021/06/16 10:04:37;;;;;;;5.97;2.42;;;33.50;46.20;;;;;;5049206;28;20020;-64
2021/06/16 10:07:29;;;;;;;6.15;2.28;;;33.40;46.70;;;;;;5034959;28;20502;-64
2021/06/16 10:10:08;;;;;;;4.47;2.50;;;33.30;47.10;;;;;;5042445;28;20051;-64
2021/06/16 10:12:35;;;;;;;7.05;2.15;;;33.20;46.60;;;;;;5037901;28;20065;-65
2021/06/16 10:15:08;;;;;;;5.88;2.70;;;33.20;46.80;;;;;;5038688;28;20025;-64
2021/06/16 10:17:33;;;;;;;4.95;2.55;;;33.30;46.50;;;;;;5027985;28;20029;-64
2021/06/16 10:20:00;;;;;;;5.32;2.20;;;33.20;47.10;;;;;;5028953;28;20098;-64
2021/06/16 10:22:26;;;;;;;10.10;2.72;;;33.30;46.80;;;;;;5019190;28;20072;-64
2021/06/16 10:24:53;;;;;;;4.15;2.20;;;33.40;47.20;;;;;;5024342;28;20048;-65
2021/06/16 10:27:27;;;;;;;3.28;2.55;;;33.40;47.30;;;;;;5024585;28;20043;-65
2021/06/16 10:29:55;;;;;;;5.60;2.30;;;33.50;46.80;;;;;;5021509;28;20076;-64
2021/06/16 10:32:20;;;;;;;4.00;2.00;;;33.60;46.90;;;;;;5020999;28;20080;-65
2021/06/16 10:34:52;;;;;;;5.90;2.40;;;33.70;46.30;;;;;;5025335;28;20025;-65
2021/06/16 10:37:27;;;;;;;3.85;2.15;;;33.70;45.80;;;;;;5023733;28;20108;-64
2021/06/16 10:40:22;;;;;;;5.15;2.30;;;33.60;46.20;;;;;;5020706;28;20033;-65
2021/06/16 10:43:16;;;;;;;5.70;2.60;;;33.60;46.70;;;;;;5022597;28;20030;-65
2021/06/16 10:45:49;;;;;;;4.95;3.17;;;33.60;46.20;;;;;;5020852;28;20044;-65
2021/06/16 10:48:16;;;;;;;5.20;2.65;;;33.30;46.30;;;;;;5029798;28;20025;-65
2021/06/16 10:50:53;;;;;;;6.57;1.92;;;33.20;47.20;;;;;;5020830;28;20032;-65
2021/06/16 10:53:21;;;;;;;7.28;2.25;;;33.20;46.40;;;;;;5024647;28;20030;-66
2021/06/16 10:55:55;;;;;;;5.32;2.83;;;33.10;46.40;;;;;;5027064;28;20475;-65
2021/06/16 10:58:26;;;;;;;7.72;2.22;;;33.10;46.60;;;;;;5015935;28;20033;-65
2021/06/16 11:01:11;;;;;;;5.55;2.13;;;33.00;47.10;;;;;;5039525;28;20056;-64
2021/06/16 11:03:52;;;;;;;8.25;3.08;;;33.10;47.60;;;;;;5026968;28;20681;-65
2021/06/16 11:06:33;;;;;;;5.45;2.40;;;33.10;46.80;;;;;;5008096;28;20033;-66
2021/06/16 11:08:59;;;;;;;3.63;2.13;;;33.00;46.70;;;;;;5018900;28;20017;-65
2021/06/16 11:11:48;;;;;;;6.13;2.30;;;33.00;47.90;;;;;;5041328;28;20112;-65
2021/06/16 11:14:32;;;;;;;4.78;2.00;;;32.90;47.40;;;;;;5030087;28;20093;-65
2021/06/16 11:17:08;;;;;;;7.78;3.03;;;33.00;47.30;;;;;;5044664;28;20024;-65
2021/06/16 11:19:36;;;;;;;5.10;2.47;;;33.00;47.70;;;;;;5042259;28;20024;-65
2021/06/16 11:22:25;;;;;;;6.87;3.07;;;33.00;48.10;;;;;;5038635;28;20032;-65
2021/06/16 11:25:17;;;;;;;5.97;2.40;;;33.00;48.10;;;;;;5024974;28;20686;-65
2021/06/16 11:27:51;;;;;;;4.80;2.55;;;33.00;48.10;;;;;;5038311;28;20454;-65
2021/06/16 11:30:54;;;;;;;5.32;2.42;;;33.10;48.00;;;;;;5039727;28;20036;-65
2021/06/16 11:33:22;;;;;;;6.82;2.55;;;33.20;48.40;;;;;;5035175;28;20222;-65
2021/06/16 11:36:00;;;;;;;7.22;3.33;;;33.10;48.30;;;;;;5040127;28;20407;-65
2021/06/16 11:38:56;;;;;;;7.40;2.85;;;33.20;47.70;;;;;;5045293;28;20037;-65
2021/06/16 11:41:28;;;;;;;6.35;3.22;;;33.30;48.10;;;;;;5034891;28;20034;-65
2021/06/16 11:44:07;;;;;;;12.65;3.90;;;33.30;47.30;;;;;;5046334;28;20028;-63
2021/06/16 11:46:35;;;;;;;;;;;33.20;47.40;;;;;;5036048;28;20380;-64
2021/06/16 11:49:09;;;;;;;10.00;4.45;;;33.00;47.80;;;;;;5043642;28;20346;-65
2021/06/16 11:51:43;;;;;;;11.13;4.53;;;33.00;47.90;;;;;;5039482;28;20026;-68
2021/06/16 11:54:22;;;;;;;8.15;3.38;;;33.00;47.60;;;;;;5021856;28;20111;-65
2021/06/16 11:56:48;;;;;;;6.07;3.25;;;33.00;47.70;;;;;;5021628;28;20177;-65
2021/06/16 11:59:14;;;;;;;7.05;4.32;;;33.20;48.50;;;;;;5027086;28;20484;-65
2021/06/16 12:01:40;;;;;;;7.22;3.60;;;33.30;47.90;;;;;;5013992;28;20026;-65
2021/06/16 12:04:11;;;;;;;8.60;3.35;;;33.30;47.90;;;;;;5017979;28;20034;-65
2021/06/16 12:06:37;;;;;;;7.18;3.47;;;33.30;48.00;;;;;;5025947;28;20024;-66
2021/06/16 12:09:03;;;;;;;5.45;3.55;;;33.40;47.80;;;;;;5023979;28;21038;-65
2021/06/16 12:11:32;;;;;;;7.88;3.90;;;33.60;47.90;;;;;;5019365;28;20068;-65
2021/06/16 12:14:09;;;;;;;8.20;3.70;;;33.60;47.60;;;;;;5021791;28;20112;-65
2021/06/16 12:16:42;;;;;;;8.68;3.75;;;33.70;47.90;;;;;;5020581;28;20479;-65
2021/06/16 12:19:14;;;;;;;5.90;3.60;;;33.70;48.20;;;;;;5030772;28;20108;-65
2021/06/16 12:21:50;;;;;;;6.75;3.85;;;33.70;47.80;;;;;;5022095;28;20025;-65
2021/06/16 12:24:35;;;;;;;7.75;4.88;;;33.80;47.50;;;;;;5023771;28;20040;-65
2021/06/16 12:27:05;;;;;;;6.70;3.55;;;33.80;47.30;;;;;;5030036;28;20032;-65
2021/06/16 12:29:35;;;;;;;6.45;4.40;;;33.70;47.70;;;;;;5021475;28;20040;-65
2021/06/16 12:32:03;;;;;;;7.03;4.13;;;33.70;47.80;;;;;;5029239;28;20556;-65
2021/06/16 12:34:52;;;;;;;10.70;4.43;;;33.70;47.70;;;;;;5023391;28;20074;-65
2021/06/16 12:37:18;;;;;;;11.50;3.53;;;33.60;47.60;;;;;;5023918;28;20331;-65
2021/06/16 12:40:07;;;;;;;7.32;4.35;;;33.70;48.40;;;;;;5030666;28;20101;-65
2021/06/16 12:42:45;;;;;;;8.10;3.83;;;33.70;47.70;;;;;;5020865;28;20022;-65
2021/06/16 12:45:30;;;;;;;8.65;4.07;;;33.70;47.80;;;;;;5025506;28;20058;-65
2021/06/16 12:48:02;;;;;;;9.50;4.57;;;33.80;47.80;;;;;;5022996;28;20381;-65
2021/06/16 12:50:33;;;;;;;6.43;3.40;;;33.70;48.10;;;;;;5022982;28;20018;-65
2021/06/16 12:52:59;;;;;;;9.05;4.50;;;33.70;49.20;;;;;;5027670;28;20119;-65